createdAt,value
2023-03-05T00:00:40.952Z,96981.91
2023-03-05T00:03:07.604Z,96978.84
2023-03-05T00:05:34.278Z,96975.66
2023-03-05T00:08:01.011Z,96976.25
2023-03-05T00:10:27.662Z,96977.66
2023-03-05T00:12:54.312Z,96974.00
2023-03-05T00:15:20.975Z,96976.66
2023-03-05T00:17:47.670Z,96979.47
2023-03-05T00:20:14.445Z,96984.81
2023-03-05T00:22:41.124Z,96972.09
2023-03-05T00:25:08.117Z,96973.78
2023-03-05T00:27:34.760Z,96972.53
2023-03-05T00:30:01.655Z,96965.84
2023-03-05T00:32:28.377Z,96970.56
2023-03-05T00:34:55.108Z,96964.16
2023-03-05T00:37:21.774Z,96973.94
2023-03-05T00:39:48.439Z,96969.22
2023-03-05T00:42:15.100Z,96968.09
2023-03-05T00:44:41.749Z,96966.13
2023-03-05T00:47:08.411Z,96972.84
2023-03-05T00:49:35.243Z,96968.09
2023-03-05T00:52:01.933Z,96969.91
2023-03-05T00:54:37.302Z,96969.50
2023-03-05T00:57:07.145Z,96968.94
2023-03-05T00:59:33.873Z,96970.06
2023-03-05T01:02:00.589Z,96974.41
2023-03-05T01:04:27.271Z,96966.16
2023-03-05T01:06:53.916Z,96966.97
2023-03-05T01:09:20.612Z,96967.28
2023-03-05T01:11:47.398Z,96965.59
2023-03-05T01:14:14.228Z,96962.81
2023-03-05T01:16:40.901Z,96964.47
2023-03-05T01:19:07.575Z,96960.44
2023-03-05T01:21:35.275Z,96966.19
2023-03-05T01:24:02.109Z,96964.63
2023-03-05T01:26:28.798Z,96964.38
2023-03-05T01:28:55.435Z,96966.31
2023-03-05T01:31:22.121Z,96964.78
2023-03-05T01:33:48.797Z,96954.31
2023-03-05T01:36:15.546Z,96954.84
2023-03-05T01:38:43.371Z,96951.94
2023-03-05T01:41:10.120Z,96951.66
2023-03-05T01:43:36.801Z,96948.03
2023-03-05T01:46:22.652Z,96938.97
2023-03-05T01:49:01.387Z,96951.81
2023-03-05T01:51:29.687Z,96931.03
2023-03-05T01:53:56.350Z,96936.72
2023-03-05T01:56:23.024Z,96924.47
2023-03-05T01:58:49.839Z,96925.59
2023-03-05T02:01:16.615Z,96937.03
2023-03-05T02:03:43.415Z,96926.56
2023-03-05T02:06:10.108Z,96926.72
2023-03-05T02:08:36.750Z,96923.63
2023-03-05T02:11:03.419Z,96929.06
2023-03-05T02:13:32.786Z,96930.31
2023-03-05T02:15:59.982Z,96932.50
2023-03-05T02:18:26.640Z,96926.25
2023-03-05T02:21:01.549Z,96919.69
2023-03-05T02:23:30.346Z,96927.34
2023-03-05T02:25:57.026Z,96919.69
2023-03-05T02:28:30.820Z,96918.28
2023-03-05T02:30:57.493Z,96926.38
2023-03-05T02:33:24.145Z,96912.28
2023-03-05T02:35:50.814Z,96917.72
2023-03-05T02:38:18.390Z,96920.09
2023-03-05T02:40:45.064Z,96916.06
2023-03-05T02:43:11.729Z,96920.78
2023-03-05T02:45:38.605Z,96911.44
2023-03-05T02:48:05.382Z,96914.09
2023-03-05T02:50:32.066Z,96915.22
2023-03-05T02:52:58.726Z,96903.47
2023-03-05T02:55:25.527Z,96899.16
2023-03-05T02:57:52.178Z,96891.88
2023-03-05T03:00:18.958Z,96905.56
2023-03-05T03:02:45.666Z,96901.50
2023-03-05T03:05:12.324Z,96891.47
2023-03-05T03:07:39.000Z,96901.78
2023-03-05T03:10:06.303Z,96899.53
2023-03-05T03:12:37.496Z,96904.38
2023-03-05T03:15:04.384Z,96912.31
2023-03-05T03:17:31.025Z,96904.63
2023-03-05T03:19:57.680Z,96902.94
2023-03-05T03:22:24.327Z,96910.31
2023-03-05T03:24:50.972Z,96909.72
2023-03-05T03:27:17.655Z,96915.28
2023-03-05T03:29:44.304Z,96923.50
2023-03-05T03:32:11.019Z,96917.22
2023-03-05T03:34:37.726Z,96924.56
2023-03-05T03:37:04.404Z,96921.22
2023-03-05T03:39:31.077Z,96928.03
2023-03-05T03:41:57.801Z,96925.41
2023-03-05T03:44:24.440Z,96922.44
2023-03-05T03:46:51.208Z,96922.44
2023-03-05T03:49:22.657Z,96923.97
2023-03-05T03:51:49.328Z,96917.50
2023-03-05T03:54:16.171Z,96918.81
2023-03-05T03:56:42.848Z,96926.88
2023-03-05T03:59:09.578Z,96921.03
2023-03-05T04:01:36.255Z,96915.28
2023-03-05T04:04:03.438Z,96925.16
2023-03-05T04:06:30.161Z,96911.94
2023-03-05T04:08:56.866Z,96910.13
2023-03-05T04:11:23.567Z,96916.53
2023-03-05T04:13:50.405Z,96898.00
2023-03-05T04:16:17.159Z,96899.09
2023-03-05T04:18:43.910Z,96895.38
2023-03-05T04:21:10.595Z,96894.34
2023-03-05T04:23:37.277Z,96891.84
2023-03-05T04:26:04.102Z,96890.88
2023-03-05T04:28:30.921Z,96891.28
2023-03-05T04:30:57.642Z,96895.44
2023-03-05T04:33:24.313Z,96890.16
2023-03-05T04:35:51.037Z,96892.06
2023-03-05T04:38:17.715Z,96888.72
2023-03-05T04:40:45.146Z,96884.28
2023-03-05T04:43:11.888Z,96883.00
2023-03-05T04:45:42.471Z,96881.06
2023-03-05T04:48:09.380Z,96878.56
2023-03-05T04:50:36.083Z,96883.72
2023-03-05T04:53:03.042Z,96881.78
2023-03-05T04:55:29.689Z,96885.25
2023-03-05T04:57:56.391Z,96883.00
2023-03-05T05:00:23.014Z,96885.66
2023-03-05T05:02:50.134Z,96889.00
2023-03-05T05:05:24.764Z,96888.88
2023-03-05T05:07:55.782Z,96885.25
2023-03-05T05:10:22.490Z,96886.22
2023-03-05T05:12:50.472Z,96890.69
2023-03-05T05:15:17.183Z,96889.28
2023-03-05T05:17:43.900Z,96884.69
2023-03-05T05:20:11.792Z,96883.16
2023-03-05T05:22:38.487Z,96878.69
2023-03-05T05:25:05.444Z,96879.63
2023-03-05T05:27:32.139Z,96866.97
2023-03-05T05:29:58.937Z,96868.91
2023-03-05T05:32:25.769Z,96872.38
2023-03-05T05:34:56.237Z,96867.75
2023-03-05T05:37:22.962Z,96866.75
2023-03-05T05:39:49.658Z,96865.78
2023-03-05T05:42:17.695Z,96869.06
2023-03-05T05:44:44.361Z,96865.59
2023-03-05T05:47:11.093Z,96869.34
2023-03-05T05:49:37.792Z,96870.59
2023-03-05T05:52:04.715Z,96862.19
2023-03-05T05:54:31.406Z,96872.19
2023-03-05T05:56:58.098Z,96873.53
2023-03-05T05:59:24.886Z,96870.56
2023-03-05T06:01:51.679Z,96878.38
2023-03-05T06:04:18.406Z,96883.53
2023-03-05T06:06:45.088Z,96877.25
2023-03-05T06:09:11.891Z,96882.56
2023-03-05T06:11:38.544Z,96880.88
2023-03-05T06:14:05.292Z,96889.13
2023-03-05T06:16:32.025Z,96892.00
2023-03-05T06:18:58.717Z,96884.00
2023-03-05T06:21:25.531Z,96879.78
2023-03-05T06:23:52.247Z,96877.88
2023-03-05T06:26:21.306Z,96879.78
2023-03-05T06:28:47.983Z,96874.63
2023-03-05T06:31:22.050Z,96872.59
2023-03-05T06:33:49.358Z,96872.69
2023-03-05T06:36:17.097Z,96878.94
2023-03-05T06:38:43.790Z,96877.97
2023-03-05T06:41:15.137Z,96875.72
2023-03-05T06:43:43.234Z,96882.69
2023-03-05T06:46:14.890Z,96871.16
2023-03-05T06:48:41.888Z,96876.28
2023-03-05T06:51:18.351Z,96877.41
2023-03-05T06:53:45.046Z,96876.28
2023-03-05T06:56:11.730Z,96877.88
2023-03-05T06:58:38.407Z,96869.06
2023-03-05T07:01:06.324Z,96870.50
2023-03-05T07:03:34.103Z,96864.97
2023-03-05T07:06:03.767Z,96871.69
2023-03-05T07:08:30.450Z,96866.19
2023-03-05T07:10:57.122Z,96865.94
2023-03-05T07:13:24.775Z,96868.56
2023-03-05T07:15:51.555Z,96858.75
2023-03-05T07:18:18.243Z,96870.34
2023-03-05T07:20:44.891Z,96870.53
2023-03-05T07:23:11.561Z,96870.13
2023-03-05T07:25:38.524Z,96876.97
2023-03-05T07:28:05.812Z,96872.28
2023-03-05T07:30:33.286Z,96878.53
2023-03-05T07:32:59.915Z,96880.75
2023-03-05T07:35:26.751Z,96884.09
2023-03-05T07:37:53.562Z,96883.13
2023-03-05T07:40:20.449Z,96884.00
2023-03-05T07:42:47.098Z,96880.25
2023-03-05T07:45:13.779Z,96877.06
2023-03-05T07:47:40.489Z,96877.38
2023-03-05T07:50:07.471Z,96881.69
2023-03-05T07:52:34.150Z,96878.34
2023-03-05T07:55:00.807Z,96875.28
2023-03-05T07:57:27.484Z,96873.75
2023-03-05T07:59:54.131Z,96867.91
2023-03-05T08:02:20.845Z,96863.72
2023-03-05T08:04:47.555Z,96866.81
2023-03-05T08:07:17.518Z,96869.50
2023-03-05T08:09:44.202Z,96869.66
2023-03-05T08:12:10.870Z,96871.72
2023-03-05T08:14:37.746Z,96871.34
2023-03-05T08:17:05.068Z,96871.34
2023-03-05T08:19:32.583Z,96877.75
2023-03-05T08:21:59.270Z,96871.06
2023-03-05T08:24:25.933Z,96872.75
2023-03-05T08:26:52.584Z,96873.88
2023-03-05T08:29:19.332Z,96864.81
2023-03-05T08:31:46.161Z,96867.50
2023-03-05T08:34:12.968Z,96864.16
2023-03-05T08:36:39.649Z,96861.38
2023-03-05T08:39:06.517Z,96861.94
2023-03-05T08:41:33.176Z,96861.13
2023-03-05T08:43:59.871Z,96857.06
2023-03-05T08:46:26.540Z,96856.81
2023-03-05T08:48:53.258Z,96848.97
2023-03-05T08:51:21.520Z,96843.66
2023-03-05T08:53:48.219Z,96843.78
2023-03-05T08:56:14.986Z,96841.25
2023-03-05T08:58:41.666Z,96832.13
2023-03-05T09:01:08.320Z,96835.44
2023-03-05T09:03:34.979Z,96841.53
2023-03-05T09:06:02.366Z,96836.09
2023-03-05T09:08:29.206Z,96843.78
2023-03-05T09:10:56.035Z,96844.00
2023-03-05T09:13:22.711Z,96849.59
2023-03-05T09:16:00.034Z,96838.72
2023-03-05T09:18:26.778Z,96841.59
2023-03-05T09:20:53.763Z,96837.84
2023-03-05T09:23:20.501Z,96826.00
2023-03-05T09:25:47.175Z,96828.25
2023-03-05T09:28:13.841Z,96834.13
2023-03-05T09:30:40.515Z,96829.34
2023-03-05T09:33:07.240Z,96824.28
2023-03-05T09:35:37.224Z,96823.66
2023-03-05T09:38:05.680Z,96818.59
2023-03-05T09:40:47.354Z,96817.69
2023-03-05T09:43:26.989Z,96816.28
2023-03-05T09:46:11.714Z,96808.41
2023-03-05T09:48:52.269Z,96807.09
2023-03-05T09:51:28.143Z,96813.59
2023-03-05T09:54:02.818Z,96810.88
2023-03-05T09:56:41.278Z,96813.28
2023-03-05T09:59:32.707Z,96801.53
2023-03-05T10:02:17.403Z,96799.59
2023-03-05T10:05:04.810Z,96788.16
2023-03-05T10:07:32.673Z,96788.31
2023-03-05T10:10:08.808Z,96789.09
2023-03-05T10:12:38.521Z,96784.44
2023-03-05T10:15:15.943Z,96787.22
2023-03-05T10:18:06.544Z,96777.53
2023-03-05T10:20:56.110Z,96771.66
2023-03-05T10:23:42.372Z,96772.59
2023-03-05T10:26:45.363Z,96773.41
2023-03-05T10:29:29.574Z,96762.13
2023-03-05T10:32:19.565Z,96764.78
2023-03-05T10:34:55.579Z,96762.75
2023-03-05T10:37:22.126Z,96758.22
2023-03-05T10:39:51.777Z,96758.66
2023-03-05T10:42:50.949Z,96756.88
2023-03-05T10:45:23.111Z,96752.47
2023-03-05T10:48:16.570Z,96749.63
2023-03-05T10:50:46.775Z,96739.72
2023-03-05T10:53:26.921Z,96733.81
2023-03-05T10:55:53.596Z,96720.16
2023-03-05T10:58:20.435Z,96722.66
2023-03-05T11:01:10.211Z,96717.38
2023-03-05T11:03:59.449Z,96714.81
2023-03-05T11:06:41.902Z,96713.22
2023-03-05T11:09:23.638Z,96721.59
2023-03-05T11:12:15.655Z,96707.56
2023-03-05T11:14:44.796Z,96711.00
2023-03-05T11:17:40.632Z,96702.69
2023-03-05T11:20:28.622Z,96693.75
2023-03-05T11:23:14.404Z,96696.28
2023-03-05T11:25:57.158Z,96693.78
2023-03-05T11:28:33.664Z,96681.28
2023-03-05T11:31:05.098Z,96686.63
2023-03-05T11:33:31.897Z,96675.63
2023-03-05T11:36:25.648Z,96671.56
2023-03-05T11:38:54.564Z,96666.03
2023-03-05T11:41:25.858Z,96662.94
2023-03-05T11:43:53.183Z,96658.59
2023-03-05T11:46:20.216Z,96657.78
2023-03-05T11:48:47.023Z,96650.13
2023-03-05T11:51:31.668Z,96652.91
2023-03-05T11:54:01.145Z,96648.81
2023-03-05T11:56:30.201Z,96644.38
2023-03-05T11:59:15.428Z,96638.47
2023-03-05T12:01:51.342Z,96641.34
2023-03-05T12:04:19.046Z,96632.97
2023-03-05T12:07:00.171Z,96634.00
2023-03-05T12:09:34.267Z,96628.53
2023-03-05T12:12:31.951Z,96637.38
2023-03-05T12:15:05.352Z,96623.56
2023-03-05T12:17:35.505Z,96615.19
2023-03-05T12:20:15.893Z,96612.38
2023-03-05T12:22:43.241Z,96605.72
2023-03-05T12:25:32.064Z,96599.50
2023-03-05T12:27:58.866Z,96595.69
2023-03-05T12:30:45.973Z,96595.03
2023-03-05T12:33:37.284Z,96589.88
2023-03-05T12:36:22.519Z,96591.38
2023-03-05T12:38:52.905Z,96576.00
2023-03-05T12:41:22.621Z,96581.06
2023-03-05T12:44:09.118Z,96581.38
2023-03-05T12:46:39.716Z,96578.25
2023-03-05T12:49:21.588Z,96564.09
2023-03-05T12:51:49.192Z,96563.09
2023-03-05T12:54:23.147Z,96560.59
2023-03-05T12:56:49.833Z,96569.59
2023-03-05T12:59:17.217Z,96557.63
2023-03-05T13:01:50.845Z,96559.31
2023-03-05T13:04:21.546Z,96552.00
2023-03-05T13:06:49.779Z,96552.34
2023-03-05T13:09:23.926Z,96551.06
2023-03-05T13:11:52.005Z,96555.66
2023-03-05T13:14:29.218Z,96551.69
2023-03-05T13:16:56.005Z,96548.38
2023-03-05T13:19:22.777Z,96540.03
2023-03-05T13:22:03.151Z,96543.50
2023-03-05T13:24:29.843Z,96541.84
2023-03-05T13:26:56.551Z,96535.63
2023-03-05T13:29:24.990Z,96536.31
2023-03-05T13:31:55.961Z,96529.28
2023-03-05T13:34:40.949Z,96532.41
2023-03-05T13:37:20.282Z,96521.06
2023-03-05T13:39:51.968Z,96526.25
2023-03-05T13:42:21.528Z,96516.19
2023-03-05T13:44:59.153Z,96514.88
2023-03-05T13:47:28.743Z,96502.97
2023-03-05T13:49:59.359Z,96499.00
2023-03-05T13:52:31.020Z,96493.16
2023-03-05T13:54:59.651Z,96498.81
2023-03-05T13:57:43.293Z,96487.97
2023-03-05T14:00:37.039Z,96484.28
2023-03-05T14:03:21.127Z,96470.47
2023-03-05T14:05:47.952Z,96470.72
2023-03-05T14:08:24.256Z,96468.47
2023-03-05T14:10:51.484Z,96458.84
2023-03-05T14:13:20.244Z,96454.72
2023-03-05T14:16:10.405Z,96450.97
2023-03-05T14:18:37.197Z,96445.19
2023-03-05T14:21:11.255Z,96440.47
2023-03-05T14:23:43.837Z,96440.78
2023-03-05T14:26:23.482Z,96435.25
2023-03-05T14:28:56.158Z,96433.09
2023-03-05T14:31:22.846Z,96426.84
2023-03-05T14:33:51.310Z,96417.53
2023-03-05T14:36:24.771Z,96417.19
2023-03-05T14:38:52.644Z,96406.59
2023-03-05T14:41:32.367Z,96409.06
2023-03-05T14:43:59.944Z,96407.59
2023-03-05T14:46:27.653Z,96403.47
2023-03-05T14:48:55.224Z,96396.84
2023-03-05T14:51:21.967Z,96393.50
2023-03-05T14:53:49.417Z,96388.16
2023-03-05T14:56:27.059Z,96383.56
2023-03-05T14:58:54.636Z,96385.13
2023-03-05T15:01:22.266Z,96375.75
2023-03-05T15:03:49.821Z,96377.69
2023-03-05T15:06:36.297Z,96367.47
2023-03-05T15:09:05.109Z,96369.31
2023-03-05T15:11:33.711Z,96367.53
2023-03-05T15:14:01.326Z,96357.63
2023-03-05T15:16:28.995Z,96360.16
2023-03-05T15:18:56.514Z,96350.31
2023-03-05T15:21:25.136Z,96351.78
2023-03-05T15:23:53.743Z,96350.13
2023-03-05T15:26:21.310Z,96337.97
2023-03-05T15:28:48.932Z,96339.19
2023-03-05T15:31:16.554Z,96345.25
2023-03-05T15:33:44.126Z,96341.66
2023-03-05T15:36:11.718Z,96331.69
2023-03-05T15:38:41.345Z,96325.97
2023-03-05T15:41:08.940Z,96331.31
2023-03-05T15:43:50.702Z,96325.41
2023-03-05T15:46:20.312Z,96325.13
2023-03-05T15:48:48.025Z,96325.03
2023-03-05T15:51:16.965Z,96316.38
2023-03-05T15:53:44.433Z,96315.84
2023-03-05T15:56:19.042Z,96308.41
2023-03-05T15:58:46.633Z,96310.59
2023-03-05T16:01:13.981Z,96304.72
2023-03-05T16:03:43.727Z,96308.41
2023-03-05T16:06:11.435Z,96314.63
2023-03-05T16:08:38.150Z,96298.69
2023-03-05T16:11:05.059Z,96304.75
2023-03-05T16:13:32.249Z,96310.16
2023-03-05T16:16:01.190Z,96300.31
2023-03-05T16:18:29.458Z,96298.00
2023-03-05T16:20:57.063Z,96302.19
2023-03-05T16:23:24.667Z,96305.78
2023-03-05T16:25:53.319Z,96299.66
2023-03-05T16:28:20.913Z,96292.84
2023-03-05T16:30:56.528Z,96297.22
2023-03-05T16:33:25.144Z,96295.25
2023-03-05T16:36:12.867Z,96288.81
2023-03-05T16:38:40.442Z,96292.81
2023-03-05T16:41:08.970Z,96290.03
2023-03-05T16:43:36.641Z,96287.38
2023-03-05T16:46:04.283Z,96288.25
2023-03-05T16:48:31.102Z,96289.47
2023-03-05T16:50:58.511Z,96289.00
2023-03-05T16:53:26.123Z,96287.00
2023-03-05T16:55:54.803Z,96280.53
2023-03-05T16:58:22.182Z,96284.72
2023-03-05T17:00:50.091Z,96279.44
2023-03-05T17:03:16.828Z,96291.75
2023-03-05T17:05:43.611Z,96287.44
2023-03-05T17:08:10.331Z,96288.31
2023-03-05T17:10:38.643Z,96289.34
2023-03-05T17:13:06.145Z,96287.19
2023-03-05T17:15:34.679Z,96289.53
2023-03-05T17:18:03.298Z,96291.84
2023-03-05T17:20:30.905Z,96290.38
2023-03-05T17:22:58.482Z,96290.06
2023-03-05T17:25:27.124Z,96287.03
2023-03-05T17:27:54.706Z,96288.03
2023-03-05T17:30:22.348Z,96290.38
2023-03-05T17:32:52.684Z,96300.19
2023-03-05T17:35:21.609Z,96300.53
2023-03-05T17:37:50.178Z,96300.34
2023-03-05T17:40:18.759Z,96293.00
2023-03-05T17:42:48.073Z,96301.00
2023-03-05T17:45:15.002Z,96295.84
2023-03-05T17:47:42.613Z,96301.69
2023-03-05T17:50:11.196Z,96310.81
2023-03-05T17:52:39.795Z,96305.88
2023-03-05T17:55:10.726Z,96308.53
2023-03-05T17:57:39.086Z,96307.53
2023-03-05T18:00:07.625Z,96301.72
2023-03-05T18:02:35.197Z,96304.19
2023-03-05T18:05:04.257Z,96304.19
2023-03-05T18:07:33.411Z,96305.00
2023-03-05T18:10:02.012Z,96298.38
2023-03-05T18:12:32.361Z,96303.19
2023-03-05T18:15:00.234Z,96301.00
2023-03-05T18:17:27.796Z,96300.03
2023-03-05T18:19:55.420Z,96303.00
2023-03-05T18:22:24.081Z,96304.47
2023-03-05T18:24:52.626Z,96305.44
2023-03-05T18:27:20.211Z,96299.28
2023-03-05T18:29:48.821Z,96297.94
2023-03-05T18:32:17.505Z,96310.72
2023-03-05T18:34:46.132Z,96300.94
2023-03-05T18:37:12.918Z,96303.72
2023-03-05T18:39:40.285Z,96310.72
2023-03-05T18:42:07.932Z,96303.63
2023-03-05T18:44:35.590Z,96307.09
2023-03-05T18:47:02.337Z,96299.94
2023-03-05T18:49:29.051Z,96299.09
2023-03-05T18:51:55.708Z,96300.78
2023-03-05T18:54:22.387Z,96298.84
2023-03-05T18:56:49.719Z,96292.66
2023-03-05T18:59:16.415Z,96288.19
2023-03-05T19:01:43.140Z,96291.84
2023-03-05T19:04:10.283Z,96285.84
2023-03-05T19:06:37.012Z,96284.66
2023-03-05T19:09:44.610Z,96286.63
2023-03-05T19:12:11.312Z,96276.97
2023-03-05T19:14:38.057Z,96280.13
2023-03-05T19:17:04.735Z,96286.44
2023-03-05T19:19:31.427Z,96281.13
2023-03-05T19:21:58.199Z,96284.28
2023-03-05T19:24:25.905Z,96278.31
2023-03-05T19:26:52.563Z,96277.63
2023-03-05T19:29:19.534Z,96272.97
2023-03-05T19:31:47.124Z,96272.75
2023-03-05T19:34:14.751Z,96270.94
2023-03-05T19:36:41.429Z,96274.41
2023-03-05T19:39:08.135Z,96261.47
2023-03-05T19:41:34.893Z,96257.97
2023-03-05T19:44:02.146Z,96258.25
2023-03-05T19:46:29.823Z,96269.34
2023-03-05T19:48:56.598Z,96266.47
2023-03-05T19:51:24.319Z,96264.66
2023-03-05T19:53:50.947Z,96260.34
2023-03-05T19:56:17.752Z,96252.91
2023-03-05T19:58:44.697Z,96268.97
2023-03-05T20:01:12.566Z,96263.50
2023-03-05T20:03:40.270Z,96261.19
2023-03-05T20:06:08.884Z,96258.81
2023-03-05T20:08:36.456Z,96264.59
2023-03-05T20:11:03.561Z,96258.75
2023-03-05T20:13:30.594Z,96260.72
2023-03-05T20:15:57.416Z,96257.03
2023-03-05T20:18:24.392Z,96262.00
2023-03-05T20:20:55.104Z,96261.78
2023-03-05T20:23:22.119Z,96263.75
2023-03-05T20:25:49.046Z,96257.00
2023-03-05T20:28:16.036Z,96261.59
2023-03-05T20:30:42.762Z,96248.84
2023-03-05T20:33:10.429Z,96245.88
2023-03-05T20:35:37.350Z,96256.47
2023-03-05T20:38:26.187Z,96247.34
2023-03-05T20:40:54.649Z,96244.44
2023-03-05T20:43:21.935Z,96250.06
2023-03-05T20:45:48.647Z,96250.22
2023-03-05T20:48:15.484Z,96249.38
2023-03-05T20:50:42.208Z,96253.31
2023-03-05T20:53:08.910Z,96249.00
2023-03-05T20:55:35.609Z,96236.38
2023-03-05T20:58:02.322Z,96229.88
2023-03-05T21:00:29.050Z,96224.75
2023-03-05T21:02:55.730Z,96235.19
2023-03-05T21:05:25.380Z,96238.75
2023-03-05T21:07:52.034Z,96239.50
2023-03-05T21:10:19.556Z,96237.00
2023-03-05T21:12:47.362Z,96244.47
2023-03-05T21:15:15.878Z,96232.38
2023-03-05T21:17:42.566Z,96238.00
2023-03-05T21:20:11.835Z,96236.09
2023-03-05T21:22:38.514Z,96242.16
2023-03-05T21:25:23.469Z,96235.75
2023-03-05T21:27:51.729Z,96231.88
2023-03-05T21:30:18.669Z,96236.34
2023-03-05T21:32:45.484Z,96224.09
2023-03-05T21:35:16.619Z,96228.41
2023-03-05T21:37:43.337Z,96230.53
2023-03-05T21:40:11.977Z,96223.72
2023-03-05T21:42:38.800Z,96220.19
2023-03-05T21:45:06.410Z,96221.94
2023-03-05T21:47:33.530Z,96217.22
2023-03-05T21:50:00.437Z,96218.69
2023-03-05T21:52:27.110Z,96205.22
2023-03-05T21:54:54.033Z,96207.34
2023-03-05T21:57:22.386Z,96205.22
2023-03-05T21:59:49.026Z,96203.31
2023-03-05T22:02:17.221Z,96197.44
2023-03-05T22:04:44.214Z,96190.69
2023-03-05T22:07:10.877Z,96186.13
2023-03-05T22:09:37.544Z,96190.16
2023-03-05T22:12:37.607Z,96182.06
2023-03-05T22:15:04.561Z,96179.69
2023-03-05T22:17:31.202Z,96175.69
2023-03-05T22:19:57.848Z,96181.81
2023-03-05T22:22:24.502Z,96181.50
2023-03-05T22:24:51.184Z,96178.69
2023-03-05T22:27:17.819Z,96189.16
2023-03-05T22:29:44.472Z,96178.19
2023-03-05T22:32:11.211Z,96172.91
2023-03-05T22:34:37.882Z,96174.41
2023-03-05T22:37:04.615Z,96173.06
2023-03-05T22:39:31.276Z,96169.41
2023-03-05T22:41:57.928Z,96171.72
2023-03-05T22:44:25.163Z,96174.81
2023-03-05T22:46:51.886Z,96172.16
2023-03-05T22:49:18.532Z,96165.44
2023-03-05T22:51:45.206Z,96165.56
2023-03-05T22:54:11.845Z,96162.72
2023-03-05T22:56:38.604Z,96162.19
2023-03-05T22:59:05.254Z,96162.19
2023-03-05T23:01:31.906Z,96157.84
2023-03-05T23:04:38.636Z,96168.59
2023-03-05T23:07:05.381Z,96167.09
2023-03-05T23:09:32.030Z,96170.72
2023-03-05T23:11:58.672Z,96166.59
2023-03-05T23:14:25.334Z,96164.09
2023-03-05T23:16:51.974Z,96160.47
2023-03-05T23:19:18.641Z,96167.94
2023-03-05T23:21:45.309Z,96164.38
2023-03-05T23:24:11.946Z,96179.75
2023-03-05T23:26:38.606Z,96169.97
2023-03-05T23:29:05.235Z,96177.00
2023-03-05T23:31:31.956Z,96175.50
2023-03-05T23:33:58.628Z,96172.69
2023-03-05T23:36:25.480Z,96176.34
2023-03-05T23:38:52.131Z,96171.63
2023-03-05T23:41:18.792Z,96167.88
2023-03-05T23:43:45.437Z,96169.81
2023-03-05T23:46:12.126Z,96166.94
2023-03-05T23:48:38.808Z,96161.97
2023-03-05T23:51:09.339Z,96165.28
2023-03-05T23:53:36.154Z,96162.88
2023-03-05T23:56:07.470Z,96164.31
2023-03-05T23:58:35.503Z,96166.28
